createdAt,value
2022-09-16T04:00:28.917Z,14.11
2022-09-16T04:05:28.848Z,14.21
2022-09-16T04:10:28.795Z,14.27
2022-09-16T04:15:35.865Z,13.96
2022-09-16T04:20:28.686Z,13.89
2022-09-16T04:25:28.632Z,13.99
2022-09-16T04:30:28.574Z,13.85
2022-09-16T04:35:28.548Z,13.88
2022-09-16T04:40:28.589Z,13.86
2022-09-16T04:45:28.422Z,14.19
2022-09-16T04:50:28.482Z,14.26
2022-09-16T04:55:28.336Z,14.49
2022-09-16T05:00:28.260Z,14.19
2022-09-16T05:05:28.206Z,14.20
2022-09-16T05:10:28.155Z,14.12
2022-09-16T05:15:28.224Z,13.94
2022-09-16T05:20:28.044Z,14.05
2022-09-16T05:25:27.998Z,14.06
2022-09-16T05:30:27.940Z,14.19
2022-09-16T05:35:28.010Z,14.38
2022-09-16T05:40:27.940Z,14.46
2022-09-16T05:45:32.262Z,14.61
2022-09-16T05:50:27.728Z,14.59
2022-09-16T05:55:27.789Z,14.13
2022-09-16T06:00:27.630Z,14.55
2022-09-16T06:05:27.555Z,14.56
2022-09-16T06:10:27.512Z,14.80
2022-09-16T06:15:27.581Z,14.88
2022-09-16T06:20:27.409Z,14.98
2022-09-16T06:25:27.418Z,15.23
2022-09-16T06:30:31.024Z,15.19
2022-09-16T06:35:27.371Z,15.13
2022-09-16T06:40:27.311Z,15.18
2022-09-16T06:45:27.137Z,15.28
2022-09-16T06:50:27.125Z,15.40
2022-09-16T06:55:27.142Z,15.45
2022-09-16T07:00:26.976Z,15.29
2022-09-16T07:05:26.924Z,15.53
2022-09-16T07:10:26.867Z,15.88
2022-09-16T07:15:26.928Z,15.85
2022-09-16T07:20:26.806Z,15.76
2022-09-16T07:25:26.706Z,15.68
2022-09-16T07:30:26.665Z,16.11
2022-09-16T07:35:26.713Z,16.35
2022-09-16T07:40:29.661Z,16.13
2022-09-16T07:45:26.485Z,16.60
2022-09-16T07:50:26.431Z,16.78
2022-09-16T07:55:26.494Z,17.22
2022-09-16T08:00:26.319Z,17.91
2022-09-16T08:05:26.258Z,19.76
2022-09-16T08:10:29.195Z,18.96
2022-09-16T08:15:27.291Z,20.98
2022-09-16T08:20:26.098Z,20.48
2022-09-16T08:25:26.046Z,18.70
2022-09-16T08:30:25.988Z,19.20
2022-09-16T08:35:26.054Z,18.09
2022-09-16T08:40:25.886Z,18.09
2022-09-16T08:45:25.873Z,17.82
2022-09-16T08:50:25.829Z,18.06
2022-09-16T08:55:25.842Z,17.70
2022-09-16T09:00:25.662Z,18.83
2022-09-16T09:05:25.612Z,19.03
2022-09-16T09:10:25.559Z,20.62
2022-09-16T09:15:28.303Z,20.90
2022-09-16T09:20:25.450Z,20.31
2022-09-16T09:25:25.390Z,19.94
2022-09-16T09:30:25.334Z,20.26
2022-09-16T09:35:25.416Z,20.24
2022-09-16T09:40:25.294Z,20.30
2022-09-16T09:45:25.177Z,20.82
2022-09-16T09:50:25.127Z,19.28
2022-09-16T09:55:25.200Z,19.78
2022-09-16T10:00:25.020Z,20.41
2022-09-16T10:05:24.969Z,18.74
2022-09-16T10:10:24.919Z,18.25
2022-09-16T10:15:32.025Z,17.95
2022-09-16T10:20:24.807Z,17.42
2022-09-16T10:25:24.749Z,17.35
2022-09-16T10:30:24.699Z,17.82
2022-09-16T10:35:24.769Z,17.80
2022-09-16T10:40:24.643Z,17.13
2022-09-16T10:45:24.528Z,16.75
2022-09-16T10:50:24.476Z,16.10
2022-09-16T10:55:24.557Z,16.48
2022-09-16T11:00:24.373Z,18.32
2022-09-16T11:05:26.113Z,18.23
2022-09-16T11:10:25.115Z,17.58
2022-09-16T11:15:24.386Z,16.57
2022-09-16T11:20:24.156Z,16.11
2022-09-16T11:25:24.105Z,16.89
2022-09-16T11:30:24.049Z,17.13
2022-09-16T11:35:24.119Z,17.55
2022-09-16T11:40:24.001Z,17.96
2022-09-16T11:45:23.911Z,17.95
2022-09-16T11:50:23.829Z,18.86
2022-09-16T11:55:23.903Z,19.65
2022-09-16T12:00:23.724Z,19.09
2022-09-16T12:05:23.668Z,19.38
2022-09-16T12:10:23.616Z,19.15
2022-09-16T12:15:23.769Z,18.02
2022-09-16T12:20:23.508Z,17.47
2022-09-16T12:25:23.482Z,16.29
2022-09-16T12:30:23.396Z,16.00
2022-09-16T12:35:23.503Z,16.14
2022-09-16T12:40:23.338Z,15.51
2022-09-16T12:45:23.232Z,16.06
2022-09-16T12:50:23.177Z,16.22
2022-09-16T12:55:23.262Z,16.00
2022-09-16T13:00:23.059Z,16.51
2022-09-16T13:05:23.017Z,16.73
2022-09-16T13:10:40.472Z,16.88
2022-09-16T13:15:24.033Z,17.18
2022-09-16T13:20:22.957Z,16.87
2022-09-16T13:25:22.801Z,17.30
2022-09-16T13:30:22.744Z,16.81
2022-09-16T13:35:22.817Z,17.55
2022-09-16T13:40:22.705Z,17.26
2022-09-16T13:45:22.579Z,16.91
2022-09-16T13:50:22.526Z,17.61
2022-09-16T13:55:22.593Z,17.77
2022-09-16T14:00:22.422Z,17.38
2022-09-16T14:05:22.362Z,17.25
2022-09-16T14:10:22.311Z,16.90
2022-09-16T14:15:22.370Z,17.39
2022-09-16T14:20:22.202Z,18.03
2022-09-16T14:25:29.342Z,18.23
2022-09-16T14:30:22.110Z,17.72
2022-09-16T14:35:22.154Z,17.45
2022-09-16T14:40:22.060Z,16.66
2022-09-16T14:45:21.936Z,17.02
2022-09-16T14:50:21.879Z,17.39
2022-09-16T14:55:21.951Z,16.62
2022-09-16T15:00:21.768Z,16.45
2022-09-16T15:05:21.710Z,16.50
2022-09-16T15:10:21.656Z,16.84
2022-09-16T15:15:21.715Z,16.94
2022-09-16T15:20:21.550Z,16.81
2022-09-16T15:25:21.492Z,17.02
2022-09-16T15:30:21.539Z,16.93
2022-09-16T15:35:21.514Z,16.61
2022-09-16T15:40:21.410Z,16.80
2022-09-16T15:45:21.271Z,16.89
2022-09-16T15:50:21.220Z,16.73
2022-09-16T15:55:21.285Z,16.83
2022-09-16T16:00:21.110Z,16.48
2022-09-16T16:05:21.055Z,16.61
2022-09-16T16:10:20.999Z,16.48
2022-09-16T16:15:28.176Z,16.27
2022-09-16T16:20:20.888Z,16.12
2022-09-16T16:25:20.834Z,15.84
2022-09-16T16:30:20.787Z,15.65
2022-09-16T16:35:20.873Z,15.57
2022-09-16T16:40:20.728Z,15.66
2022-09-16T16:45:20.610Z,15.51
2022-09-16T16:50:20.556Z,15.39
2022-09-16T16:55:20.629Z,15.27
2022-09-16T17:00:20.467Z,15.41
2022-09-16T17:05:20.396Z,15.21
2022-09-16T17:10:20.349Z,15.09
2022-09-16T17:15:20.414Z,14.90
2022-09-16T17:20:20.234Z,14.86
2022-09-16T17:25:20.181Z,14.82
2022-09-16T17:30:20.130Z,14.83
2022-09-16T17:35:20.189Z,14.53
2022-09-16T17:40:20.098Z,14.60
2022-09-16T17:45:19.998Z,14.54
2022-09-16T17:50:23.003Z,14.31
2022-09-16T17:55:19.973Z,14.22
2022-09-16T18:00:19.804Z,14.23
2022-09-16T18:05:19.889Z,14.24
2022-09-16T18:10:19.698Z,14.14
2022-09-16T18:15:19.768Z,14.10
2022-09-16T18:20:19.592Z,14.22
2022-09-16T18:25:19.541Z,14.13
2022-09-16T18:30:19.485Z,14.12
2022-09-16T18:35:19.549Z,14.19
2022-09-16T18:40:19.441Z,14.07
2022-09-16T18:45:19.338Z,14.17
2022-09-16T18:50:19.272Z,14.19
2022-09-16T18:55:19.324Z,14.09
2022-09-16T19:00:19.169Z,13.96
2022-09-16T19:05:19.112Z,13.97
2022-09-16T19:10:19.064Z,13.94
2022-09-16T19:15:19.116Z,14.05
2022-09-16T19:20:18.950Z,13.98
2022-09-16T19:25:18.899Z,14.00
2022-09-16T19:30:18.838Z,13.86
2022-09-16T19:35:18.916Z,13.60
2022-09-16T19:40:18.835Z,13.50
2022-09-16T19:45:18.682Z,13.44
2022-09-16T19:50:18.632Z,13.34
2022-09-16T19:55:18.707Z,13.23
2022-09-16T20:00:18.535Z,13.20
2022-09-16T20:05:18.459Z,13.23
2022-09-16T20:10:18.418Z,13.07
2022-09-16T20:15:18.485Z,13.05
2022-09-16T20:20:18.313Z,12.98
2022-09-16T20:25:23.297Z,12.95
2022-09-16T20:30:19.200Z,12.98
2022-09-16T20:35:18.269Z,13.16
2022-09-16T20:40:18.138Z,13.06
2022-09-16T20:45:18.046Z,12.90
2022-09-16T20:50:17.985Z,12.94
2022-09-16T20:55:18.054Z,12.86
2022-09-16T21:00:17.883Z,12.87
2022-09-16T21:05:17.826Z,12.74
2022-09-16T21:10:17.776Z,12.91
2022-09-16T21:15:17.858Z,12.63
2022-09-16T21:20:17.666Z,12.63
2022-09-16T21:25:17.611Z,12.55
2022-09-16T21:30:17.550Z,12.61
2022-09-16T21:35:17.625Z,12.69
2022-09-16T21:40:17.526Z,12.66
2022-09-16T21:45:17.385Z,12.68
2022-09-16T21:50:17.343Z,12.67
2022-09-16T21:55:17.413Z,12.59
2022-09-16T22:00:17.236Z,12.81
2022-09-16T22:05:17.184Z,12.78
2022-09-16T22:10:17.129Z,12.70
2022-09-16T22:15:17.194Z,12.79
2022-09-16T22:20:24.089Z,12.89
2022-09-16T22:25:16.967Z,12.78
2022-09-16T22:30:16.917Z,12.75
2022-09-16T22:35:16.982Z,12.68
2022-09-16T22:40:16.868Z,12.72
2022-09-16T22:45:16.751Z,12.82
2022-09-16T22:50:16.700Z,12.88
2022-09-16T22:55:16.769Z,12.89
2022-09-16T23:00:16.591Z,12.77
2022-09-16T23:05:16.556Z,12.76
2022-09-16T23:10:16.472Z,12.61
2022-09-16T23:15:16.552Z,12.55
2022-09-16T23:20:16.385Z,12.64
2022-09-16T23:25:16.323Z,12.49
